Time;durP1;ratioP1;P1;durP2;ratioP2;P2;SDS_P1;SDS_P2;PMS_P1;PMS_P2;Temp;Humidity;BMP_temperature;BMP_pressure;BME280_temperature;BME280_humidity;BME280_pressure;Samples;Min_cycle;Max_cycle;Signal;HPM_P1;HPM_P2
2021/04/25 00:01:09;;;;;;;1.75;1.65;;;14.10;99.90;;;;;;5070065;28;20298;-70
2021/04/25 00:03:35;;;;;;;2.63;2.42;;;14.00;99.90;;;;;;5070702;28;20626;-71
2021/04/25 00:06:02;;;;;;;2.47;2.28;;;14.00;99.90;;;;;;5070112;28;20210;-70
2021/04/25 00:08:29;;;;;;;2.33;2.13;;;14.00;99.90;;;;;;5070856;28;20202;-69
2021/04/25 00:10:56;;;;;;;2.08;1.95;;;14.00;99.90;;;;;;5070596;28;20303;-70
2021/04/25 00:13:22;;;;;;;3.05;2.28;;;13.90;99.90;;;;;;5069974;28;20701;-69
2021/04/25 00:15:49;;;;;;;2.30;2.10;;;13.90;99.90;;;;;;5070283;28;20589;-73
2021/04/25 00:18:16;;;;;;;2.40;2.20;;;13.80;99.90;;;;;;5069895;28;20655;-73
2021/04/25 00:20:42;;;;;;;2.42;2.22;;;13.80;99.90;;;;;;5070332;28;20610;-70
2021/04/25 00:23:09;;;;;;;2.38;2.10;;;13.80;99.90;;;;;;5069909;28;20260;-71
2021/04/25 00:25:36;;;;;;;2.60;2.40;;;13.70;99.90;;;;;;5070625;28;20283;-72
2021/04/25 00:28:03;;;;;;;2.78;2.58;;;13.70;99.90;;;;;;5069283;28;20582;-72
2021/04/25 00:30:30;;;;;;;2.13;2.03;;;13.80;99.90;;;;;;5070235;28;20673;-70
2021/04/25 00:32:56;;;;;;;3.55;2.58;;;13.70;99.90;;;;;;5070777;28;20206;-72
2021/04/25 00:35:23;;;;;;;2.40;2.20;;;13.70;99.90;;;;;;5056026;28;20202;-71
2021/04/25 00:37:49;;;;;;;2.40;2.20;;;13.70;99.90;;;;;;5070230;28;20246;-72
2021/04/25 00:40:17;;;;;;;2.40;2.20;;;13.70;99.90;;;;;;5069607;28;20206;-70
2021/04/25 00:42:45;;;;;;;3.93;3.63;;;13.70;99.90;;;;;;5070179;28;20206;-74
2021/04/25 00:45:14;;;;;;;2.30;2.10;;;13.70;99.90;;;;;;5069534;28;20325;-76
2021/04/25 00:47:41;;;;;;;2.85;2.28;;;13.70;99.90;;;;;;5069959;28;20670;-75
2021/04/25 00:50:09;;;;;;;2.85;2.50;;;13.70;99.90;;;;;;5070118;28;20592;-77
2021/04/25 00:52:38;;;;;;;3.78;2.80;;;13.60;99.90;;;;;;5090080;28;20209;-76
2021/04/25 00:55:06;;;;;;;2.80;2.60;;;13.60;99.90;;;;;;5089745;28;20205;-77
2021/04/25 00:57:33;;;;;;;3.83;2.35;;;13.60;99.90;;;;;;5090220;28;20205;-74
2021/04/25 01:00:00;;;;;;;2.78;2.58;;;13.60;99.90;;;;;;5089962;28;20676;-72
2021/04/25 01:02:28;;;;;;;2.63;2.42;;;13.40;99.90;;;;;;5091435;28;20237;-75
2021/04/25 01:04:55;;;;;;;2.97;2.78;;;13.40;99.90;;;;;;5094713;28;20213;-73
2021/04/25 01:07:21;;;;;;;2.97;2.53;;;13.40;99.90;;;;;;5093455;28;20258;-77
2021/04/25 01:09:48;;;;;;;2.60;2.40;;;13.40;99.90;;;;;;5094040;28;20779;-78
2021/04/25 01:12:14;;;;;;;4.57;3.20;;;13.30;99.90;;;;;;5093250;28;20201;-68
2021/04/25 01:14:41;;;;;;;4.30;2.70;;;13.30;99.90;;;;;;5094015;28;20206;-72
2021/04/25 01:17:08;;;;;;;3.70;2.40;;;13.30;99.90;;;;;;5093079;28;20210;-71
2021/04/25 01:19:35;;;;;;;2.55;2.35;;;13.30;99.90;;;;;;5093823;28;20547;-74
2021/04/25 01:22:03;;;;;;;3.10;2.40;;;13.20;99.90;;;;;;5093462;28;20225;-69
2021/04/25 01:24:29;;;;;;;2.30;2.10;;;13.10;99.90;;;;;;5093503;28;20741;-69
2021/04/25 01:26:56;;;;;;;2.63;2.43;;;13.10;99.90;;;;;;5094200;28;20210;-70
2021/04/25 01:29:22;;;;;;;2.72;2.53;;;13.00;99.90;;;;;;5093091;28;20194;-70
2021/04/25 01:31:49;;;;;;;3.22;2.92;;;13.20;99.90;;;;;;5093525;28;20212;-71
2021/04/25 01:34:15;;;;;;;2.83;2.63;;;13.00;99.90;;;;;;5092783;28;20251;-73
2021/04/25 01:36:42;;;;;;;2.73;2.53;;;13.00;99.90;;;;;;5093679;28;20206;-74
2021/04/25 01:39:09;;;;;;;2.67;2.47;;;13.10;99.90;;;;;;5092926;28;20209;-68
2021/04/25 01:41:36;;;;;;;3.28;2.72;;;13.10;99.90;;;;;;5093281;28;20221;-71
2021/04/25 01:44:03;;;;;;;3.30;2.70;;;13.10;99.90;;;;;;5093093;28;20205;-70
2021/04/25 01:46:30;;;;;;;5.23;3.20;;;13.00;99.90;;;;;;5093235;28;20263;-71
2021/04/25 01:48:57;;;;;;;3.57;2.90;;;13.10;99.90;;;;;;5093477;28;20222;-71
2021/04/25 01:51:23;;;;;;;3.97;3.00;;;13.10;99.90;;;;;;5092638;28;20607;-70
2021/04/25 01:53:50;;;;;;;5.10;3.03;;;13.10;99.90;;;;;;5092688;28;20206;-71
2021/04/25 01:56:17;;;;;;;3.33;3.10;;;13.00;99.90;;;;;;5092504;28;20716;-73
2021/04/25 01:58:43;;;;;;;5.70;3.37;;;13.00;99.90;;;;;;5092800;28;20677;-71
2021/04/25 02:01:10;;;;;;;3.73;3.10;;;13.00;99.90;;;;;;5092384;28;20252;-71
2021/04/25 02:03:37;;;;;;;3.42;3.13;;;13.00;99.90;;;;;;5092842;28;20227;-69
2021/04/25 02:06:04;;;;;;;3.88;3.58;;;13.00;99.90;;;;;;5092495;28;20738;-71
2021/04/25 02:08:30;;;;;;;3.37;3.13;;;13.10;99.90;;;;;;5092577;28;20201;-71
2021/04/25 02:10:57;;;;;;;3.13;2.93;;;13.10;99.90;;;;;;5092911;28;20213;-71
2021/04/25 02:13:24;;;;;;;3.67;3.37;;;13.10;99.90;;;;;;5092438;28;20212;-73
2021/04/25 02:15:51;;;;;;;3.30;2.97;;;13.10;99.90;;;;;;5092169;28;20228;-72
2021/04/25 02:18:18;;;;;;;3.60;3.30;;;13.10;99.90;;;;;;5092185;28;20581;-73
2021/04/25 02:20:44;;;;;;;2.73;2.53;;;13.10;99.90;;;;;;5092347;28;20222;-74
2021/04/25 02:23:11;;;;;;;4.50;3.10;;;13.10;99.90;;;;;;5091837;28;20564;-69
2021/04/25 02:25:37;;;;;;;3.77;3.17;;;13.10;99.90;;;;;;5092448;28;20198;-71
2021/04/25 02:28:04;;;;;;;4.50;3.47;;;13.10;99.90;;;;;;5092076;28;20197;-70
2021/04/25 02:30:33;;;;;;;3.10;2.90;;;13.10;99.90;;;;;;5092065;28;20201;-73
2021/04/25 02:33:00;;;;;;;4.80;3.00;;;13.10;99.90;;;;;;5092635;28;20205;-70
2021/04/25 02:35:28;;;;;;;4.67;4.17;;;13.00;99.90;;;;;;5092402;28;20586;-73
2021/04/25 02:37:56;;;;;;;3.70;3.40;;;13.00;99.90;;;;;;5092585;28;20208;-70
2021/04/25 02:40:24;;;;;;;3.20;3.00;;;13.00;99.90;;;;;;5091683;28;20673;-70
2021/04/25 02:42:52;;;;;;;3.97;3.60;;;13.00;99.90;;;;;;5091633;28;20596;-70
2021/04/25 02:45:24;;;;;;;4.73;3.67;;;13.10;99.90;;;;;;5091683;28;20220;-70
2021/04/25 02:47:52;;;;;;;3.80;3.07;;;13.00;99.90;;;;;;5091773;28;20270;-74
2021/04/25 02:50:21;;;;;;;5.53;4.77;;;13.10;99.90;;;;;;5091790;28;20220;-76
2021/04/25 02:52:48;;;;;;;3.77;3.47;;;13.10;99.90;;;;;;5091533;28;20210;-74
2021/04/25 02:55:15;;;;;;;3.83;3.53;;;13.10;99.90;;;;;;5091383;28;20254;-74
2021/04/25 02:57:42;;;;;;;5.87;3.67;;;13.10;99.90;;;;;;5091530;28;20209;-73
2021/04/25 03:00:11;;;;;;;3.93;3.57;;;13.10;99.90;;;;;;5091316;28;20206;-75
2021/04/25 03:02:38;;;;;;;4.03;3.73;;;13.10;99.90;;;;;;5091925;28;20261;-75
2021/04/25 03:05:07;;;;;;;4.20;3.80;;;13.10;99.90;;;;;;5091075;28;20251;-74
2021/04/25 03:07:33;;;;;;;3.87;3.57;;;13.10;99.90;;;;;;5091375;28;20212;-72
2021/04/25 03:10:00;;;;;;;4.23;3.90;;;13.10;99.90;;;;;;5091538;28;20206;-73
2021/04/25 03:12:26;;;;;;;3.63;3.33;;;13.10;99.90;;;;;;5092165;28;20209;-75
2021/04/25 03:14:53;;;;;;;9.57;3.67;;;13.10;99.90;;;;;;5091707;28;20210;-75
2021/04/25 03:17:19;;;;;;;4.10;3.63;;;13.20;99.90;;;;;;5091074;28;20206;-75
2021/04/25 03:19:46;;;;;;;4.33;3.53;;;13.20;99.90;;;;;;5091625;28;20218;-74
2021/04/25 03:22:14;;;;;;;4.07;3.77;;;13.20;99.90;;;;;;5090584;28;20234;-73
2021/04/25 03:24:40;;;;;;;8.60;4.33;;;13.20;99.90;;;;;;5091287;28;20239;-73
2021/04/25 03:27:07;;;;;;;6.97;3.93;;;13.20;99.90;;;;;;5090805;28;20270;-74
2021/04/25 03:29:33;;;;;;;5.47;3.83;;;13.30;99.90;;;;;;5091070;28;20676;-70
2021/04/25 03:32:00;;;;;;;3.90;3.50;;;13.20;99.90;;;;;;5091038;28;20677;-72
2021/04/25 03:34:26;;;;;;;5.00;4.53;;;13.20;99.90;;;;;;5091530;28;20705;-74
2021/04/25 03:36:53;;;;;;;5.03;3.83;;;13.10;99.90;;;;;;5090955;28;20217;-70
2021/04/25 03:39:20;;;;;;;4.60;4.20;;;13.20;99.90;;;;;;5090617;28;20209;-72
2021/04/25 03:41:46;;;;;;;3.90;3.60;;;13.20;99.90;;;;;;5090781;28;20735;-70
2021/04/25 03:44:14;;;;;;;4.43;4.03;;;13.20;99.90;;;;;;5090656;28;20597;-71
2021/04/25 03:46:41;;;;;;;4.27;3.97;;;13.10;99.90;;;;;;5091080;28;20212;-73
2021/04/25 03:49:07;;;;;;;5.53;5.13;;;13.10;99.90;;;;;;5090193;28;20696;-73
2021/04/25 03:51:34;;;;;;;5.03;4.53;;;13.00;99.90;;;;;;5090680;28;20669;-69
2021/04/25 03:54:00;;;;;;;4.43;4.03;;;12.90;99.90;;;;;;5091014;28;20221;-70
2021/04/25 03:56:27;;;;;;;5.87;4.53;;;12.90;99.90;;;;;;5090904;28;20205;-72
2021/04/25 03:58:54;;;;;;;3.67;3.37;;;12.90;99.90;;;;;;5091060;28;20202;-72
2021/04/25 04:01:21;;;;;;;5.33;4.93;;;12.90;99.90;;;;;;5090424;28;20677;-72
2021/04/25 04:03:48;;;;;;;4.43;4.03;;;12.90;99.90;;;;;;5090675;28;20201;-71
2021/04/25 04:06:14;;;;;;;6.20;4.00;;;12.90;99.90;;;;;;5090384;28;20206;-71
2021/04/25 04:08:41;;;;;;;4.57;3.93;;;13.00;99.90;;;;;;5090402;28;20202;-73
2021/04/25 04:11:07;;;;;;;4.80;4.37;;;12.90;99.90;;;;;;5090473;28;20205;-71
2021/04/25 04:13:35;;;;;;;4.77;4.37;;;13.00;99.90;;;;;;5090587;28;20206;-74
2021/04/25 04:16:02;;;;;;;4.87;4.47;;;13.00;99.90;;;;;;5090387;28;20255;-69
2021/04/25 04:18:28;;;;;;;5.07;3.97;;;13.00;99.90;;;;;;5090119;28;20665;-71
2021/04/25 04:20:55;;;;;;;5.13;4.67;;;13.00;99.90;;;;;;5090823;28;20229;-70
2021/04/25 04:23:22;;;;;;;4.57;4.17;;;13.10;99.90;;;;;;5090245;28;20205;-69
2021/04/25 04:25:49;;;;;;;4.03;3.70;;;13.10;99.90;;;;;;5090364;28;20206;-70
2021/04/25 04:28:15;;;;;;;5.60;4.40;;;13.10;99.90;;;;;;5090063;28;20236;-74
2021/04/25 04:30:43;;;;;;;7.00;5.60;;;13.10;99.90;;;;;;5090248;28;20201;-70
2021/04/25 04:33:09;;;;;;;3.57;3.27;;;13.10;99.90;;;;;;5089837;28;20198;-71
2021/04/25 04:35:36;;;;;;;5.20;4.67;;;13.10;99.90;;;;;;5090131;28;20227;-71
2021/04/25 04:38:02;;;;;;;4.17;3.77;;;13.10;99.90;;;;;;5092173;28;20197;-71
2021/04/25 04:40:29;;;;;;;4.60;4.27;;;13.10;99.90;;;;;;5094257;28;20708;-71
2021/04/25 04:42:55;;;;;;;6.77;4.73;;;13.10;99.90;;;;;;5094906;28;20229;-72
2021/04/25 04:45:22;;;;;;;5.53;5.13;;;13.10;99.90;;;;;;5093928;28;20260;-70
2021/04/25 04:47:49;;;;;;;5.17;4.40;;;13.00;99.90;;;;;;5093820;28;20205;-69
2021/04/25 04:50:18;;;;;;;5.17;4.77;;;13.00;99.90;;;;;;5094122;28;20209;-70
2021/04/25 04:52:46;;;;;;;5.80;4.33;;;13.00;99.90;;;;;;5093983;28;20616;-77
2021/04/25 04:55:14;;;;;;;5.53;5.03;;;13.00;99.90;;;;;;5093667;28;20205;-74
2021/04/25 04:57:40;;;;;;;4.60;4.30;;;13.00;99.90;;;;;;5094185;28;20220;-76
2021/04/25 05:00:08;;;;;;;5.10;4.70;;;13.00;99.90;;;;;;5093584;28;20213;-71
2021/04/25 05:02:35;;;;;;;4.50;4.05;;;13.00;99.90;;;;;;5093684;28;20288;-74
2021/04/25 05:05:02;;;;;;;4.87;4.47;;;13.10;99.90;;;;;;5093560;28;20220;-71
2021/04/25 05:07:29;;;;;;;6.67;4.83;;;13.10;99.90;;;;;;5094363;28;20271;-72
2021/04/25 05:09:55;;;;;;;5.47;4.60;;;13.10;99.90;;;;;;5094223;28;20206;-79
2021/04/25 05:12:22;;;;;;;5.50;4.97;;;13.10;99.90;;;;;;5093781;28;20205;-70
2021/04/25 05:14:48;;;;;;;4.67;4.30;;;13.20;99.90;;;;;;5093793;28;20213;-74
2021/04/25 05:17:15;;;;;;;5.67;4.10;;;13.20;99.90;;;;;;5093203;28;20209;-74
2021/04/25 05:19:41;;;;;;;4.80;4.40;;;13.30;99.90;;;;;;5094126;28;20235;-75
2021/04/25 05:22:08;;;;;;;4.63;4.27;;;13.40;99.90;;;;;;5093008;28;20762;-78
2021/04/25 05:24:35;;;;;;;4.73;4.37;;;13.40;99.90;;;;;;5093823;28;20205;-74
2021/04/25 05:27:02;;;;;;;5.20;3.77;;;13.50;99.90;;;;;;5093277;28;20266;-72
2021/04/25 05:29:28;;;;;;;4.77;4.37;;;13.60;99.90;;;;;;5093950;28;20218;-73
2021/04/25 05:31:55;;;;;;;10.83;4.37;;;13.60;99.90;;;;;;5093599;28;20206;-70
2021/04/25 05:34:21;;;;;;;5.00;4.50;;;13.70;99.90;;;;;;5078337;28;20217;-72
2021/04/25 05:36:47;;;;;;;4.60;4.20;;;13.80;99.90;;;;;;5085262;28;20216;-71
2021/04/25 05:39:15;;;;;;;4.57;4.20;;;13.90;99.90;;;;;;5090477;28;20204;-69
2021/04/25 05:41:41;;;;;;;4.77;4.30;;;14.00;99.90;;;;;;5093413;28;20236;-73
2021/04/25 05:44:08;;;;;;;5.63;5.17;;;14.00;99.90;;;;;;5092909;28;20210;-74
2021/04/25 05:46:35;;;;;;;4.18;3.88;;;14.10;99.90;;;;;;5093411;28;20217;-70
2021/04/25 05:49:01;;;;;;;4.72;3.95;;;14.30;99.90;;;;;;5091412;28;20245;-71
2021/04/25 05:51:28;;;;;;;4.13;3.70;;;14.30;99.90;;;;;;5093063;28;20227;-69
2021/04/25 05:53:54;;;;;;;5.67;4.90;;;14.20;99.90;;;;;;5093681;28;20212;-72
2021/04/25 05:56:22;;;;;;;4.18;3.83;;;14.30;99.90;;;;;;5092610;28;20209;-73
2021/04/25 05:58:48;;;;;;;4.20;3.88;;;14.30;99.90;;;;;;5092977;28;20201;-69
2021/04/25 06:01:16;;;;;;;4.25;3.92;;;14.20;99.90;;;;;;5092544;28;20229;-70
2021/04/25 06:03:42;;;;;;;4.47;4.07;;;14.20;99.90;;;;;;5092370;28;20561;-70
2021/04/25 06:06:09;;;;;;;4.93;4.35;;;14.20;99.90;;;;;;5091508;28;20205;-68
2021/04/25 06:08:36;;;;;;;5.15;4.68;;;14.20;99.90;;;;;;5092347;28;20210;-72
2021/04/25 06:11:03;;;;;;;4.90;4.40;;;14.30;99.90;;;;;;5092223;28;20627;-71
2021/04/25 06:13:30;;;;;;;6.00;4.38;;;14.40;99.90;;;;;;5092382;28;20319;-70
2021/04/25 06:15:56;;;;;;;4.35;3.95;;;14.40;99.90;;;;;;5093091;28;20201;-73
2021/04/25 06:18:23;;;;;;;6.00;5.35;;;14.40;99.90;;;;;;5092325;28;20206;-71
2021/04/25 06:20:49;;;;;;;5.68;4.03;;;14.40;99.90;;;;;;5092804;28;20229;-69
2021/04/25 06:23:16;;;;;;;11.50;4.53;;;14.40;99.90;;;;;;5092373;28;20210;-71
2021/04/25 06:25:42;;;;;;;6.18;4.55;;;14.40;99.90;;;;;;5092249;28;20202;-71
2021/04/25 06:28:09;;;;;;;5.60;5.10;;;14.50;99.90;;;;;;5091956;28;20217;-72
2021/04/25 06:30:36;;;;;;;4.80;4.40;;;14.50;99.90;;;;;;5092143;28;20236;-74
2021/04/25 06:33:03;;;;;;;7.07;4.95;;;14.60;99.90;;;;;;5092345;28;20278;-72
2021/04/25 06:35:30;;;;;;;4.63;4.23;;;14.60;99.90;;;;;;5092294;28;20206;-74
2021/04/25 06:37:56;;;;;;;4.20;3.80;;;14.60;99.90;;;;;;5092458;28;20244;-72
2021/04/25 06:40:23;;;;;;;5.93;4.70;;;14.70;99.90;;;;;;5091870;28;20202;-73
2021/04/25 06:42:49;;;;;;;11.23;4.70;;;14.80;99.90;;;;;;5091910;28;20255;-73
2021/04/25 06:45:18;;;;;;;8.05;4.22;;;14.80;99.90;;;;;;5091644;28;20220;-73
2021/04/25 06:47:47;;;;;;;3.90;3.60;;;14.90;99.90;;;;;;5091572;28;20688;-74
2021/04/25 06:50:14;;;;;;;4.68;4.28;;;15.00;99.90;;;;;;5091788;28;20259;-73
2021/04/25 06:52:42;;;;;;;4.45;3.90;;;15.10;99.90;;;;;;5091980;28;20209;-73
2021/04/25 06:55:11;;;;;;;5.30;4.00;;;15.00;99.90;;;;;;5091530;28;20282;-73
2021/04/25 06:57:37;;;;;;;3.83;3.42;;;14.90;99.90;;;;;;5091524;28;20225;-71
2021/04/25 07:00:06;;;;;;;4.10;3.70;;;14.90;99.90;;;;;;5091045;28;20640;-71
2021/04/25 07:02:33;;;;;;;5.63;4.13;;;15.00;99.90;;;;;;5091829;28;20233;-72
2021/04/25 07:05:01;;;;;;;5.30;4.35;;;15.00;99.90;;;;;;5078988;28;20301;-72
2021/04/25 07:07:27;;;;;;;4.45;4.05;;;15.10;99.90;;;;;;5067124;28;20220;-73
2021/04/25 07:09:54;;;;;;;4.70;4.18;;;15.10;99.90;;;;;;5086030;28;20749;-71
2021/04/25 07:12:20;;;;;;;4.22;3.80;;;15.20;99.90;;;;;;5078451;28;20659;-72
2021/04/25 07:14:47;;;;;;;5.00;4.05;;;15.40;99.90;;;;;;5084767;28;20213;-73
2021/04/25 07:17:13;;;;;;;5.38;4.85;;;15.30;99.90;;;;;;5068025;28;20206;-72
2021/04/25 07:19:40;;;;;;;5.18;4.47;;;15.30;99.90;;;;;;5080143;28;20201;-73
2021/04/25 07:22:07;;;;;;;4.47;4.07;;;15.40;99.90;;;;;;5090667;28;20237;-71
2021/04/25 07:24:34;;;;;;;4.45;3.65;;;15.50;99.90;;;;;;5084680;28;20258;-73
2021/04/25 07:27:01;;;;;;;4.28;3.47;;;15.50;99.90;;;;;;5091011;28;20600;-74
2021/04/25 07:29:28;;;;;;;4.82;3.95;;;15.40;99.90;;;;;;5088018;28;20210;-73
2021/04/25 07:31:55;;;;;;;4.22;3.90;;;15.30;99.90;;;;;;5085298;28;20669;-73
2021/04/25 07:34:21;;;;;;;7.50;3.63;;;15.50;99.90;;;;;;5090763;28;20553;-71
2021/04/25 07:36:47;;;;;;;4.25;3.90;;;15.60;99.90;;;;;;5072843;28;20590;-72
2021/04/25 07:39:15;;;;;;;4.20;3.80;;;15.60;99.90;;;;;;5088317;28;20582;-71
2021/04/25 07:41:41;;;;;;;6.35;3.78;;;15.30;99.90;;;;;;5068174;28;20610;-71
2021/04/25 07:44:08;;;;;;;3.83;3.53;;;15.50;99.90;;;;;;5075743;28;20214;-69
2021/04/25 07:46:35;;;;;;;4.20;3.55;;;15.50;99.90;;;;;;5079928;28;20613;-79
2021/04/25 07:49:01;;;;;;;4.70;3.60;;;15.70;99.90;;;;;;5084589;28;20220;-71
2021/04/25 07:51:27;;;;;;;4.38;4.05;;;15.60;99.90;;;;;;5089359;28;20208;-72
2021/04/25 07:53:55;;;;;;;4.65;3.30;;;15.70;99.90;;;;;;5091353;28;20202;-75
2021/04/25 07:56:23;;;;;;;4.40;3.95;;;15.70;99.90;;;;;;5086520;28;20213;-73
2021/04/25 07:58:50;;;;;;;4.60;4.18;;;15.70;99.90;;;;;;5081863;28;20283;-71
2021/04/25 08:01:16;;;;;;;5.75;3.90;;;15.70;99.90;;;;;;5072059;28;20604;-71
2021/04/25 08:03:43;;;;;;;4.43;4.03;;;15.90;99.90;;;;;;5069306;28;20205;-72
2021/04/25 08:06:09;;;;;;;4.20;3.90;;;15.70;99.90;;;;;;5070809;28;20260;-74
2021/04/25 08:08:36;;;;;;;4.28;3.78;;;15.80;99.90;;;;;;5069755;28;20664;-71
2021/04/25 08:11:03;;;;;;;4.63;4.22;;;15.60;99.90;;;;;;5065531;28;20228;-72
2021/04/25 08:13:30;;;;;;;4.18;3.63;;;15.70;99.90;;;;;;5075759;28;20205;-74
2021/04/25 08:15:56;;;;;;;4.30;3.90;;;15.70;99.90;;;;;;5080830;28;20198;-71
2021/04/25 08:18:23;;;;;;;3.92;3.63;;;15.70;99.90;;;;;;5085087;28;20564;-72
2021/04/25 08:20:49;;;;;;;4.05;3.30;;;15.90;99.90;;;;;;5089743;28;20209;-73
2021/04/25 08:23:16;;;;;;;5.40;4.07;;;15.80;99.90;;;;;;5079296;28;20299;-73
2021/04/25 08:25:42;;;;;;;12.52;5.00;;;15.90;99.90;;;;;;5079212;28;20636;-73
2021/04/25 08:28:09;;;;;;;4.18;3.70;;;16.10;99.90;;;;;;5075358;28;20210;-71
2021/04/25 08:30:36;;;;;;;4.40;3.83;;;16.00;99.90;;;;;;5077987;28;20252;-72
2021/04/25 08:33:03;;;;;;;4.20;3.90;;;16.20;99.90;;;;;;5066285;28;20210;-71
2021/04/25 08:35:30;;;;;;;5.40;3.83;;;15.90;99.90;;;;;;5073495;28;20206;-72
2021/04/25 08:37:56;;;;;;;6.13;3.78;;;16.20;99.90;;;;;;5078357;28;20205;-70
2021/04/25 08:40:23;;;;;;;4.22;3.80;;;16.30;99.90;;;;;;5074431;28;20202;-72
2021/04/25 08:42:50;;;;;;;15.55;4.47;;;16.40;99.90;;;;;;5077229;28;20226;-70
2021/04/25 08:45:16;;;;;;;4.80;4.30;;;16.40;99.90;;;;;;5074443;28;20575;-72
2021/04/25 08:47:55;;;;;;;4.13;3.83;;;16.30;99.90;;;;;;5078713;28;20209;-71
2021/04/25 08:50:23;;;;;;;4.32;4.03;;;16.40;99.90;;;;;;5066045;28;20209;-71
2021/04/25 08:52:50;;;;;;;4.38;3.95;;;16.60;99.90;;;;;;5078578;28;20220;-70
2021/04/25 08:55:17;;;;;;;3.72;3.42;;;16.50;99.90;;;;;;5075521;28;20283;-72
2021/04/25 08:57:44;;;;;;;6.53;4.32;;;16.60;99.90;;;;;;5071789;28;20202;-71
2021/04/25 09:00:12;;;;;;;4.80;3.88;;;16.40;99.90;;;;;;5089605;28;20218;-71
2021/04/25 09:02:39;;;;;;;4.47;4.05;;;16.50;99.90;;;;;;5074284;28;20234;-72
2021/04/25 09:05:07;;;;;;;4.30;3.95;;;16.40;99.90;;;;;;5082096;28;20210;-71
2021/04/25 09:07:34;;;;;;;5.80;4.00;;;16.60;99.90;;;;;;5090317;28;20201;-71
2021/04/25 09:10:05;;;;;;;4.70;3.80;;;16.50;99.90;;;;;;5088009;28;20217;-70
2021/04/25 09:12:36;;;;;;;7.25;4.72;;;16.60;99.90;;;;;;5090170;28;20202;-71
2021/04/25 09:15:05;;;;;;;4.40;4.00;;;16.60;99.90;;;;;;5089723;28;20296;-72
2021/04/25 09:17:50;;;;;;;5.50;4.72;;;16.50;99.90;;;;;;5090231;28;20212;-70
2021/04/25 09:20:18;;;;;;;4.30;3.90;;;16.60;99.90;;;;;;5086655;28;20202;-72
2021/04/25 09:22:46;;;;;;;5.68;4.43;;;16.60;99.90;;;;;;5089679;28;20233;-70
2021/04/25 09:25:15;;;;;;;4.70;4.30;;;16.60;99.90;;;;;;5093309;28;20209;-71
2021/04/25 09:27:42;;;;;;;8.32;4.05;;;16.70;99.90;;;;;;5093695;28;20209;-71
2021/04/25 09:30:11;;;;;;;4.25;3.80;;;16.80;99.90;;;;;;5093296;28;20220;-71
2021/04/25 09:32:38;;;;;;;5.40;4.82;;;16.70;99.90;;;;;;5093559;28;20204;-70
2021/04/25 09:35:13;;;;;;;24.00;19.55;;;16.70;99.90;;;;;;5084390;28;20268;-71
2021/04/25 09:37:43;;;;;;;6.25;4.35;;;16.60;99.90;;;;;;5092180;28;20201;-73
2021/04/25 09:40:12;;;;;;;4.70;4.30;;;16.60;99.90;;;;;;5093217;28;20258;-71
2021/04/25 09:43:01;;;;;;;5.10;4.53;;;16.60;99.90;;;;;;5081431;28;20720;-69
2021/04/25 09:45:31;;;;;;;6.53;4.20;;;16.70;99.90;;;;;;5093454;28;20708;-72
2021/04/25 09:47:59;;;;;;;8.23;7.43;;;16.60;99.90;;;;;;5093118;28;20213;-71
2021/04/25 09:50:26;;;;;;;5.75;5.25;;;16.50;99.90;;;;;;5093480;28;20205;-71
2021/04/25 09:52:53;;;;;;;5.95;4.78;;;16.70;99.90;;;;;;5092896;28;20263;-70
2021/04/25 09:55:23;;;;;;;5.22;4.63;;;16.60;99.90;;;;;;5092669;28;20206;-71
2021/04/25 09:57:51;;;;;;;7.50;5.13;;;16.70;99.90;;;;;;5093003;28;20220;-71
2021/04/25 10:00:19;;;;;;;9.77;8.70;;;16.50;99.90;;;;;;5092426;28;20278;-70
2021/04/25 10:03:06;;;;;;;7.30;6.60;;;16.40;99.90;;;;;;5076959;28;20291;-72
2021/04/25 10:05:33;;;;;;;4.80;4.30;;;16.40;99.90;;;;;;5076228;28;20640;-71
2021/04/25 10:08:00;;;;;;;4.07;3.78;;;16.40;99.90;;;;;;5089999;28;20205;-73
2021/04/25 10:10:28;;;;;;;7.22;5.35;;;16.20;99.90;;;;;;5080470;28;20730;-73
2021/04/25 10:12:55;;;;;;;7.10;6.50;;;16.20;99.90;;;;;;5079976;28;20255;-72
2021/04/25 10:15:22;;;;;;;6.15;5.25;;;16.20;99.90;;;;;;5064765;28;20210;-72
2021/04/25 10:17:51;;;;;;;21.33;18.48;;;16.20;99.90;;;;;;5073033;28;20571;-73
2021/04/25 10:20:20;;;;;;;11.55;9.35;;;16.20;99.90;;;;;;5071048;28;20236;-70
2021/04/25 10:22:48;;;;;;;8.43;7.57;;;16.10;99.90;;;;;;5072527;28;20233;-71
2021/04/25 10:25:17;;;;;;;6.78;5.65;;;16.20;99.90;;;;;;5072716;28;20210;-72
2021/04/25 10:27:52;;;;;;;5.28;4.78;;;16.20;99.90;;;;;;5073133;28;20343;-72
2021/04/25 10:30:19;;;;;;;7.15;4.63;;;16.20;99.90;;;;;;5063508;28;20248;-73
2021/04/25 10:32:53;;;;;;;4.95;4.18;;;16.20;99.90;;;;;;5060279;28;20206;-71
2021/04/25 10:35:25;;;;;;;4.78;4.13;;;16.40;99.90;;;;;;5071148;28;20587;-72
2021/04/25 10:37:52;;;;;;;5.57;4.68;;;16.40;99.90;;;;;;5059113;28;20728;-69
2021/04/25 10:40:22;;;;;;;5.72;5.00;;;16.20;99.90;;;;;;5072423;28;20210;-70
2021/04/25 10:43:03;;;;;;;5.18;4.78;;;16.30;99.90;;;;;;5072980;28;20269;-71
2021/04/25 10:45:32;;;;;;;6.78;6.07;;;16.20;99.90;;;;;;5072270;28;20202;-70
2021/04/25 10:48:22;;;;;;;10.95;8.80;;;16.20;99.90;;;;;;5072816;28;20210;-70
2021/04/25 10:50:50;;;;;;;9.32;6.00;;;16.20;99.90;;;;;;5072382;28;20586;-71
2021/04/25 10:53:28;;;;;;;5.85;5.10;;;16.10;99.90;;;;;;5065073;28;20207;-70
2021/04/25 10:56:28;;;;;;;5.82;5.35;;;16.30;99.90;;;;;;5082370;28;20205;-72
2021/04/25 10:59:29;;;;;;;9.85;4.95;;;16.20;99.90;;;;;;5069377;28;20696;-72
2021/04/25 11:01:57;;;;;;;6.50;5.20;;;16.10;99.90;;;;;;5074558;28;20226;-71
2021/04/25 11:05:03;;;;;;;6.13;5.53;;;16.20;99.90;;;;;;5063050;28;20214;-71
2021/04/25 11:07:48;;;;;;;8.07;5.75;;;16.30;99.90;;;;;;5068530;28;20691;-70
2021/04/25 11:10:25;;;;;;;5.72;5.20;;;16.30;99.90;;;;;;5091262;28;20198;-70
2021/04/25 11:12:52;;;;;;;10.10;4.75;;;16.20;99.90;;;;;;5091481;28;20205;-71
2021/04/25 11:15:47;;;;;;;5.78;5.25;;;16.20;99.90;;;;;;5091162;28;20205;-68
2021/04/25 11:18:52;;;;;;;5.55;5.03;;;16.40;99.90;;;;;;5091144;28;20205;-70
2021/04/25 11:21:52;;;;;;;5.53;5.03;;;16.40;99.90;;;;;;5071311;28;20715;-70
2021/04/25 11:24:39;;;;;;;8.10;5.30;;;16.40;99.90;;;;;;5065036;28;20210;-69
2021/04/25 11:27:25;;;;;;;8.70;5.35;;;16.40;99.90;;;;;;5090944;28;20205;-71
2021/04/25 11:29:58;;;;;;;9.95;5.13;;;16.40;99.90;;;;;;5070099;28;20206;-71
2021/04/25 11:32:39;;;;;;;4.90;4.00;;;16.40;99.90;;;;;;5080616;28;20202;-71
2021/04/25 11:35:22;;;;;;;6.22;4.57;;;16.50;99.90;;;;;;5079129;28;20224;-70
2021/04/25 11:37:49;;;;;;;7.10;5.47;;;16.60;99.90;;;;;;5071483;28;20249;-71
2021/04/25 11:40:23;;;;;;;4.85;4.45;;;16.60;99.90;;;;;;5073750;28;20201;-72
2021/04/25 11:42:50;;;;;;;5.70;4.40;;;16.60;99.90;;;;;;5074947;28;20639;-72
2021/04/25 11:45:27;;;;;;;7.05;5.70;;;16.60;99.90;;;;;;5070622;28;20249;-72
2021/04/25 11:47:56;;;;;;;3.83;3.53;;;16.60;99.90;;;;;;5080428;28;20213;-75
2021/04/25 11:50:31;;;;;;;4.53;4.13;;;16.40;99.90;;;;;;5076017;28;20203;-74
2021/04/25 11:52:58;;;;;;;3.90;3.53;;;16.30;99.90;;;;;;5081201;28;20354;-72
2021/04/25 11:55:24;;;;;;;5.63;3.90;;;16.10;99.90;;;;;;5057644;28;20211;-70
2021/04/25 11:57:52;;;;;;;5.05;4.57;;;16.10;99.90;;;;;;5067453;28;20579;-70
2021/04/25 12:00:22;;;;;;;5.43;4.18;;;16.00;99.90;;;;;;5088507;28;20209;-69
2021/04/25 12:02:55;;;;;;;6.18;4.25;;;16.10;99.90;;;;;;5086714;28;20234;-70
2021/04/25 12:05:23;;;;;;;5.60;5.10;;;16.10;99.90;;;;;;5077663;28;20216;-72
2021/04/25 12:07:52;;;;;;;4.20;3.78;;;16.00;99.90;;;;;;5090959;28;20209;-68
2021/04/25 12:10:29;;;;;;;4.95;4.55;;;15.90;99.90;;;;;;5090220;28;20243;-72
2021/04/25 12:13:13;;;;;;;8.05;5.72;;;15.90;99.90;;;;;;5087302;28;20280;-71
2021/04/25 12:15:44;;;;;;;5.82;5.22;;;15.90;99.90;;;;;;5089676;28;20206;-76
2021/04/25 12:18:12;;;;;;;7.82;4.40;;;15.90;99.90;;;;;;5089563;28;20205;-73
2021/04/25 12:20:42;;;;;;;8.00;3.95;;;16.30;99.90;;;;;;5090184;28;20201;-71
2021/04/25 12:23:12;;;;;;;4.28;3.97;;;16.60;99.90;;;;;;5090364;28;20243;-71
2021/04/25 12:25:39;;;;;;;3.35;3.15;;;16.90;99.90;;;;;;5090628;28;20259;-72
2021/04/25 12:28:06;;;;;;;4.75;3.95;;;17.10;99.90;;;;;;5090240;28;20201;-71
2021/04/25 12:30:33;;;;;;;4.93;4.40;;;17.40;99.90;;;;;;5090056;28;20657;-72
2021/04/25 12:33:11;;;;;;;7.82;4.22;;;17.30;99.90;;;;;;5090257;28;20210;-71
2021/04/25 12:35:40;;;;;;;4.57;4.18;;;17.70;99.90;;;;;;5077582;28;20206;-71
2021/04/25 12:38:21;;;;;;;4.40;3.83;;;17.80;99.90;;;;;;5070972;28;20206;-73
2021/04/25 12:41:10;;;;;;;5.05;3.17;;;18.00;99.90;;;;;;5073434;28;20766;-78
2021/04/25 12:43:38;;;;;;;3.30;3.00;;;18.10;99.90;;;;;;5065030;28;20238;-76
2021/04/25 12:46:14;;;;;;;3.08;2.67;;;17.60;99.90;;;;;;5063875;28;20623;-75
2021/04/25 12:48:44;;;;;;;3.33;3.03;;;17.70;99.90;;;;;;5072146;28;20241;-76
2021/04/25 12:51:20;;;;;;;4.13;2.80;;;17.30;99.90;;;;;;5069363;28;20248;-75
2021/04/25 12:54:07;;;;;;;4.30;3.22;;;17.20;99.90;;;;;;5070391;28;20548;-72